createdAt,value
2022-09-23T00:00:45.768Z,51.04
2022-09-23T00:01:45.744Z,45.15
2022-09-23T00:02:45.694Z,44.55
2022-09-23T00:03:45.668Z,56.37
2022-09-23T00:04:45.702Z,45.10
2022-09-23T00:05:45.640Z,44.47
2022-09-23T00:06:45.648Z,44.45
2022-09-23T00:07:45.621Z,44.83
2022-09-23T00:08:45.672Z,44.74
2022-09-23T00:09:45.646Z,49.22
2022-09-23T00:10:45.650Z,51.32
2022-09-23T00:11:45.608Z,59.86
2022-09-23T00:12:45.602Z,45.15
2022-09-23T00:13:45.589Z,47.79
2022-09-23T00:14:45.637Z,57.12
2022-09-23T00:15:45.589Z,45.77
2022-09-23T00:16:45.607Z,53.45
2022-09-23T00:17:45.576Z,50.25
2022-09-23T00:18:45.555Z,52.43
2022-09-23T00:19:45.623Z,44.79
2022-09-23T00:20:45.528Z,57.28
2022-09-23T00:21:45.560Z,50.96
2022-09-23T00:22:45.532Z,54.51
2022-09-23T00:23:45.546Z,44.97
2022-09-23T00:24:45.569Z,56.95
2022-09-23T00:25:45.536Z,56.16
2022-09-23T00:26:45.503Z,59.42
2022-09-23T00:27:45.497Z,59.58
2022-09-23T00:28:45.472Z,45.24
2022-09-23T00:29:45.490Z,54.42
2022-09-23T00:30:45.565Z,47.64
2022-09-23T00:31:45.546Z,47.77
2022-09-23T00:32:45.451Z,49.69
2022-09-23T00:33:45.455Z,54.71
2022-09-23T00:34:45.452Z,48.15
2022-09-23T00:35:45.442Z,46.06
2022-09-23T00:36:45.435Z,44.80
2022-09-23T00:37:45.435Z,51.81
2022-09-23T00:38:45.413Z,49.35
2022-09-23T00:39:45.383Z,51.13
2022-09-23T00:40:45.451Z,45.73
2022-09-23T00:41:45.416Z,46.64
2022-09-23T00:42:45.396Z,52.48
2022-09-23T00:43:45.369Z,51.07
2022-09-23T00:44:45.372Z,56.66
2022-09-23T00:45:46.396Z,54.05
2022-09-23T00:46:45.389Z,45.21
2022-09-23T00:47:45.344Z,54.79
2022-09-23T00:48:45.339Z,44.70
2022-09-23T00:49:45.387Z,45.34
2022-09-23T00:50:45.305Z,52.60
2022-09-23T00:51:45.388Z,46.65
2022-09-23T00:52:45.373Z,59.95
2022-09-23T00:53:45.312Z,44.70
2022-09-23T00:54:45.290Z,48.89
2022-09-23T00:55:45.294Z,53.02
2022-09-23T00:56:45.281Z,44.62
2022-09-23T00:57:45.339Z,50.66
2022-09-23T00:58:45.337Z,46.20
2022-09-23T00:59:45.270Z,51.51
2022-09-23T01:00:45.266Z,50.09
2022-09-23T01:01:45.374Z,49.10
2022-09-23T01:02:45.337Z,53.14
2022-09-23T01:03:45.295Z,49.76
2022-09-23T01:04:45.254Z,58.08
2022-09-23T01:05:45.287Z,49.59
2022-09-23T01:06:45.226Z,47.06
2022-09-23T01:07:45.220Z,49.42
2022-09-23T01:08:45.207Z,43.76
2022-09-23T01:09:45.226Z,52.33
2022-09-23T01:10:45.194Z,48.76
2022-09-23T01:11:45.166Z,43.15
2022-09-23T01:12:45.177Z,42.97
2022-09-23T01:13:45.159Z,47.19
2022-09-23T01:14:45.150Z,50.05
2022-09-23T01:15:45.155Z,49.99
2022-09-23T01:16:45.237Z,48.64
2022-09-23T01:17:45.140Z,47.11
2022-09-23T01:18:45.118Z,47.11
2022-09-23T01:19:45.182Z,47.95
2022-09-23T01:20:45.174Z,46.45
2022-09-23T01:21:45.126Z,43.81
2022-09-23T01:22:45.197Z,44.01
2022-09-23T01:23:45.101Z,43.88
2022-09-23T01:24:45.078Z,47.61
2022-09-23T01:25:45.114Z,50.77
2022-09-23T01:26:45.073Z,45.81
2022-09-23T01:27:45.096Z,54.69
2022-09-23T01:28:45.064Z,44.58
2022-09-23T01:29:45.059Z,44.03
2022-09-23T01:30:45.148Z,55.51
2022-09-23T01:31:45.015Z,50.25
2022-09-23T01:32:45.067Z,44.01
2022-09-23T01:33:45.054Z,48.90
2022-09-23T01:34:45.064Z,43.85
2022-09-23T01:35:45.020Z,43.45
2022-09-23T01:36:45.004Z,43.74
2022-09-23T01:37:44.994Z,43.75
2022-09-23T01:38:45.012Z,49.63
2022-09-23T01:39:44.962Z,43.72
2022-09-23T01:40:44.998Z,51.84
2022-09-23T01:41:44.947Z,48.98
2022-09-23T01:42:44.933Z,48.81
2022-09-23T01:43:44.976Z,44.31
2022-09-23T01:44:44.941Z,47.58
2022-09-23T02:03:30.077Z,43.86
2022-09-23T02:04:30.045Z,42.88
2022-09-23T02:05:30.059Z,44.06
2022-09-23T02:06:30.051Z,49.60
2022-09-23T02:07:30.025Z,44.74
2022-09-23T02:08:31.168Z,43.10
2022-09-23T02:09:31.223Z,51.67
2022-09-23T02:10:31.166Z,48.29
2022-09-23T02:11:31.140Z,50.35
2022-09-23T02:12:31.123Z,50.37
2022-09-23T02:13:31.137Z,45.38
2022-09-23T02:14:31.092Z,53.83
2022-09-23T02:15:31.176Z,50.47
2022-09-23T02:16:31.109Z,53.39
2022-09-23T02:17:31.096Z,45.84
2022-09-23T02:18:31.095Z,50.79
2022-09-23T02:19:31.108Z,52.97
2022-09-23T02:20:31.098Z,51.81
2022-09-23T02:21:31.087Z,53.38
2022-09-23T02:22:31.060Z,44.06
2022-09-23T02:23:31.041Z,42.78
2022-09-23T02:24:31.052Z,48.87
2022-09-23T02:25:31.262Z,49.46
2022-09-23T02:26:31.023Z,48.82
2022-09-23T02:27:31.015Z,44.55
2022-09-23T02:28:30.994Z,47.80
2022-09-23T02:29:31.002Z,43.03
2022-09-23T02:30:30.996Z,43.06
2022-09-23T02:31:31.044Z,50.01
2022-09-23T02:32:30.998Z,62.12
2022-09-23T02:33:31.000Z,49.83
2022-09-23T02:34:30.991Z,43.27
2022-09-23T02:35:30.973Z,51.39
2022-09-23T02:36:30.931Z,57.13
2022-09-23T02:37:30.936Z,57.94
2022-09-23T02:38:30.950Z,55.60
2022-09-23T02:39:30.942Z,47.97
2022-09-23T02:40:31.007Z,57.09
2022-09-23T02:41:30.935Z,48.65
2022-09-23T02:42:30.939Z,54.44
2022-09-23T02:43:30.939Z,53.35
2022-09-23T02:44:30.894Z,42.53
2022-09-23T02:45:30.899Z,49.77
2022-09-23T02:46:30.860Z,52.78
2022-09-23T02:47:30.990Z,51.25
2022-09-23T02:48:30.874Z,57.48
2022-09-23T02:49:30.846Z,56.53
2022-09-23T02:50:30.848Z,48.39
2022-09-23T02:51:30.853Z,49.39
2022-09-23T02:52:30.817Z,51.45
2022-09-23T02:53:30.843Z,50.72
2022-09-23T02:54:30.805Z,50.06
2022-09-23T02:55:30.786Z,44.73
2022-09-23T02:56:30.789Z,51.43
2022-09-23T02:57:30.805Z,55.20
2022-09-23T02:58:30.770Z,55.19
2022-09-23T02:59:30.812Z,54.07
2022-09-23T03:00:30.767Z,50.59
2022-09-23T03:01:30.846Z,60.44
2022-09-23T03:02:30.847Z,45.71
2022-09-23T03:03:30.730Z,53.69
2022-09-23T03:04:30.748Z,50.41
2022-09-23T03:05:30.724Z,53.21
2022-09-23T03:06:30.776Z,52.59
2022-09-23T03:07:30.724Z,45.55
2022-09-23T03:08:30.700Z,61.70
2022-09-23T03:09:30.743Z,54.58
2022-09-23T03:10:30.669Z,61.23
2022-09-23T03:11:30.674Z,58.37
2022-09-23T03:12:30.678Z,52.01
2022-09-23T03:13:30.689Z,43.86
2022-09-23T03:14:30.666Z,53.30
2022-09-23T03:15:30.652Z,51.38
2022-09-23T03:16:30.683Z,67.01
2022-09-23T03:17:30.629Z,61.69
2022-09-23T03:18:30.673Z,55.84
2022-09-23T03:19:30.637Z,47.22
2022-09-23T03:20:30.650Z,55.39
2022-09-23T03:21:30.632Z,51.65
2022-09-23T03:22:30.605Z,57.40
2022-09-23T03:23:30.585Z,57.73
2022-09-23T03:24:30.609Z,53.82
2022-09-23T03:25:30.587Z,59.89
2022-09-23T03:26:30.602Z,64.14
2022-09-23T03:27:30.553Z,62.15
2022-09-23T03:28:30.576Z,47.64
2022-09-23T03:29:30.544Z,60.40
2022-09-23T03:30:30.540Z,61.72
2022-09-23T03:31:30.591Z,58.23
2022-09-23T03:32:30.524Z,68.81
2022-09-23T03:33:30.521Z,59.37
2022-09-23T03:34:30.522Z,64.30
2022-09-23T03:35:30.506Z,64.28
2022-09-23T03:36:30.554Z,63.76
2022-09-23T03:37:30.587Z,53.36
2022-09-23T03:38:30.496Z,62.83
2022-09-23T03:39:30.511Z,63.58
2022-09-23T03:40:30.578Z,61.03
2022-09-23T03:41:30.475Z,68.16
2022-09-23T03:42:30.495Z,64.23
2022-09-23T03:43:30.441Z,58.27
2022-09-23T03:44:30.426Z,62.28
2022-09-23T03:45:30.484Z,64.62
2022-09-23T03:46:30.433Z,62.10
2022-09-23T04:03:36.708Z,58.45
2022-09-23T04:04:37.797Z,59.46
2022-09-23T04:05:37.806Z,64.96
2022-09-23T04:06:38.362Z,60.38
2022-09-23T04:07:37.781Z,67.12
2022-09-23T04:08:37.809Z,63.88
2022-09-23T04:09:37.791Z,65.44
2022-09-23T04:10:37.762Z,56.81
2022-09-23T04:11:37.770Z,61.73
2022-09-23T04:12:37.777Z,62.02
2022-09-23T04:13:37.791Z,63.71
2022-09-23T04:14:37.809Z,65.49
2022-09-23T04:15:37.781Z,63.60
2022-09-23T04:16:37.810Z,66.28
2022-09-23T04:17:37.784Z,59.90
2022-09-23T04:18:37.772Z,63.60
2022-09-23T04:19:37.768Z,51.36
2022-09-23T04:20:37.777Z,63.48
2022-09-23T04:21:37.751Z,65.76
2022-09-23T04:22:37.780Z,52.30
2022-09-23T04:23:37.678Z,63.60
2022-09-23T04:24:37.635Z,65.52
2022-09-23T04:25:37.661Z,67.93
2022-09-23T04:26:37.630Z,60.42
2022-09-23T04:27:38.163Z,70.76
2022-09-23T04:28:38.618Z,65.72
2022-09-23T04:29:37.609Z,66.48
2022-09-23T04:30:37.606Z,71.05
2022-09-23T04:31:37.670Z,70.02
2022-09-23T04:32:37.612Z,69.01
2022-09-23T04:33:37.598Z,70.24
2022-09-23T04:34:37.585Z,64.28
2022-09-23T04:35:40.182Z,58.90
2022-09-23T04:36:38.570Z,70.17
2022-09-23T04:37:37.564Z,71.24
2022-09-23T04:38:37.563Z,65.68
2022-09-23T04:39:37.528Z,71.46
2022-09-23T04:40:37.554Z,69.22
2022-09-23T04:41:37.551Z,66.47
2022-09-23T04:42:37.573Z,66.62
2022-09-23T04:43:37.553Z,69.00
2022-09-23T04:44:37.539Z,72.72
2022-09-23T04:45:37.582Z,65.04
2022-09-23T04:46:37.551Z,72.36
2022-09-23T04:47:37.497Z,67.62
2022-09-23T04:48:37.498Z,64.22
2022-09-23T04:49:37.472Z,65.11
2022-09-23T04:50:37.466Z,68.75
2022-09-23T04:51:37.473Z,70.82
2022-09-23T04:52:37.453Z,63.75
2022-09-23T04:53:37.440Z,66.75
2022-09-23T04:54:37.441Z,65.96
2022-09-23T04:55:37.450Z,67.31
2022-09-23T04:56:37.436Z,65.80
2022-09-23T04:57:37.416Z,70.86
2022-09-23T04:58:37.392Z,67.54
2022-09-23T04:59:37.402Z,63.33
2022-09-23T05:00:37.509Z,67.51
2022-09-23T05:01:37.438Z,67.34
2022-09-23T05:02:37.435Z,67.26
2022-09-23T05:03:37.354Z,67.11
2022-09-23T05:04:37.368Z,69.18
2022-09-23T05:05:37.349Z,69.82
2022-09-23T05:06:37.357Z,68.03
2022-09-23T05:07:37.326Z,67.20
2022-09-23T05:08:37.315Z,70.02
2022-09-23T05:09:37.307Z,70.55
2022-09-23T05:10:37.343Z,68.57
2022-09-23T05:11:37.306Z,65.60
2022-09-23T05:12:37.338Z,69.87
2022-09-23T05:13:37.289Z,70.77
2022-09-23T05:14:37.316Z,60.83
2022-09-23T05:15:37.254Z,70.47
2022-09-23T05:16:37.359Z,74.35
2022-09-23T05:17:37.322Z,60.51
2022-09-23T05:18:37.235Z,69.33
2022-09-23T05:19:37.242Z,68.75
2022-09-23T05:20:37.253Z,72.36
2022-09-23T05:21:37.224Z,72.79
2022-09-23T05:22:37.237Z,65.29
2022-09-23T05:23:37.175Z,66.99
2022-09-23T05:24:37.171Z,66.09
2022-09-23T05:25:38.456Z,71.07
2022-09-23T05:26:38.180Z,73.68
2022-09-23T05:27:37.178Z,73.84
2022-09-23T05:28:37.151Z,72.61
2022-09-23T05:29:37.147Z,64.81
2022-09-23T05:30:37.129Z,71.16
2022-09-23T05:31:37.186Z,74.77
2022-09-23T05:32:37.168Z,70.77
2022-09-23T05:33:37.121Z,71.87
2022-09-23T05:34:37.132Z,72.25
2022-09-23T05:35:37.125Z,69.64
2022-09-23T05:36:38.773Z,72.41
2022-09-23T05:37:38.094Z,70.53
2022-09-23T05:38:37.126Z,72.10
2022-09-23T05:39:37.476Z,69.18
2022-09-23T05:40:37.133Z,62.51
2022-09-23T05:41:37.059Z,71.56
2022-09-23T05:42:37.056Z,69.62
2022-09-23T05:43:37.026Z,72.33
2022-09-23T05:44:37.036Z,65.81
2022-09-23T05:45:37.020Z,74.00
2022-09-23T05:46:37.148Z,67.13
2022-09-23T05:47:37.070Z,66.37
2022-09-23T05:48:37.040Z,69.81
2022-09-23T05:49:58.034Z,69.96
2022-09-23T05:50:38.994Z,69.18
2022-09-23T05:51:37.001Z,68.55
2022-09-23T05:52:37.022Z,71.28
2022-09-23T05:53:36.980Z,71.20
2022-09-23T05:54:36.995Z,68.08
2022-09-23T05:55:36.974Z,72.24
2022-09-23T05:56:36.966Z,70.72
2022-09-23T05:57:36.923Z,66.65
2022-09-23T05:58:36.947Z,72.19
2022-09-23T05:59:36.957Z,71.48
2022-09-23T06:00:37.955Z,72.72
2022-09-23T06:01:37.083Z,65.83
2022-09-23T06:02:36.934Z,70.23
2022-09-23T06:03:36.912Z,69.80
2022-09-23T06:04:36.889Z,69.14
2022-09-23T06:05:36.916Z,62.95
2022-09-23T06:06:36.858Z,67.16
2022-09-23T06:07:36.851Z,70.11
2022-09-23T06:08:36.854Z,68.26
2022-09-23T06:09:36.983Z,70.29
2022-09-23T06:10:36.831Z,69.75
2022-09-23T06:11:36.850Z,70.81
2022-09-23T06:12:36.841Z,67.94
2022-09-23T06:13:36.817Z,71.26
2022-09-23T06:14:36.797Z,67.64
2022-09-23T06:15:36.798Z,66.55
2022-09-23T06:16:36.817Z,70.79
2022-09-23T06:17:36.778Z,66.84
2022-09-23T06:18:36.784Z,55.97
2022-09-23T06:19:36.792Z,72.09
2022-09-23T06:20:36.749Z,68.83
2022-09-23T06:21:36.738Z,64.53
2022-09-23T06:22:39.063Z,69.46
2022-09-23T06:23:40.705Z,64.16
2022-09-23T06:24:37.758Z,67.46
2022-09-23T06:25:36.717Z,68.44
2022-09-23T06:26:36.720Z,66.10
2022-09-23T06:27:36.708Z,70.82
2022-09-23T06:28:36.696Z,72.52
2022-09-23T06:29:36.696Z,68.63
2022-09-23T06:30:36.684Z,70.02
2022-09-23T06:31:36.721Z,64.04
2022-09-23T06:32:36.679Z,70.59
2022-09-23T06:33:37.432Z,68.26
2022-09-23T06:34:49.689Z,71.06
2022-09-23T06:35:38.759Z,69.02
2022-09-23T06:36:43.123Z,72.29
2022-09-23T06:37:38.643Z,63.34
2022-09-23T06:38:36.631Z,67.51
2022-09-23T06:39:36.610Z,69.11
2022-09-23T06:40:36.693Z,65.90
2022-09-23T06:41:36.617Z,74.65
2022-09-23T06:42:36.585Z,65.01
2022-09-23T06:43:36.589Z,70.66
2022-09-23T06:44:36.600Z,68.17
2022-09-23T06:45:36.559Z,63.05
2022-09-23T06:46:36.709Z,68.77
2022-09-23T06:47:36.580Z,64.91
2022-09-23T06:48:36.565Z,68.35
2022-09-23T06:49:36.588Z,60.81
2022-09-23T06:50:36.537Z,71.79
2022-09-23T06:51:36.539Z,71.29
2022-09-23T06:52:36.532Z,62.38
2022-09-23T06:53:36.534Z,61.57
2022-09-23T06:54:36.525Z,69.11
2022-09-23T06:55:36.513Z,71.81
2022-09-23T06:56:39.433Z,64.46
2022-09-23T06:57:37.504Z,59.51
2022-09-23T06:58:36.493Z,72.69
2022-09-23T06:59:36.497Z,67.42
2022-09-23T07:00:36.466Z,66.76
2022-09-23T07:01:37.575Z,71.14
2022-09-23T07:02:36.642Z,66.07
2022-09-23T07:03:36.465Z,65.53
2022-09-23T07:04:36.471Z,62.24
2022-09-23T07:06:09.371Z,68.10
2022-09-23T07:06:36.398Z,62.86
2022-09-23T07:08:10.369Z,63.66
2022-09-23T07:08:36.382Z,59.02
2022-09-23T07:09:36.402Z,73.94
2022-09-23T07:10:36.400Z,72.54
2022-09-23T07:11:36.360Z,69.13
2022-09-23T07:13:15.517Z,59.34
2022-09-23T07:14:04.390Z,51.44
2022-09-23T07:15:10.946Z,65.45
2022-09-23T07:16:10.510Z,66.67
2022-09-23T07:17:09.957Z,67.92
2022-09-23T07:18:10.515Z,64.42
2022-09-23T07:18:37.096Z,73.43
2022-09-23T07:19:37.307Z,60.84
2022-09-23T07:20:36.304Z,60.79
2022-09-23T07:21:36.336Z,67.81
2022-09-23T07:22:36.312Z,61.56
2022-09-23T07:23:36.280Z,71.94
2022-09-23T07:24:36.294Z,63.24
2022-09-23T07:25:36.279Z,69.18
2022-09-23T07:26:36.277Z,59.21
2022-09-23T07:28:09.522Z,57.37
2022-09-23T07:28:36.235Z,71.92
2022-09-23T07:30:21.293Z,67.54
2022-09-23T07:30:37.226Z,69.70
2022-09-23T07:31:39.630Z,69.77
2022-09-23T07:33:26.697Z,65.26
2022-09-23T07:33:37.305Z,60.91
2022-09-23T07:34:36.244Z,69.18
2022-09-23T07:36:09.633Z,69.15
2022-09-23T07:37:09.629Z,66.92
2022-09-23T07:38:10.140Z,63.14
2022-09-23T07:38:36.169Z,71.94
2022-09-23T07:39:36.177Z,63.32
2022-09-23T07:40:36.194Z,65.38
2022-09-23T07:41:36.136Z,71.98
2022-09-23T07:42:36.121Z,70.52
2022-09-23T07:43:36.126Z,67.00
2022-09-23T07:44:36.173Z,71.75
2022-09-23T07:45:36.153Z,66.29
2022-09-23T07:46:36.245Z,62.16
2022-09-23T07:47:36.101Z,65.36
2022-09-23T07:48:36.085Z,71.17
2022-09-23T07:49:36.113Z,64.80
2022-09-23T07:50:36.073Z,67.07
2022-09-23T07:51:36.932Z,68.13
2022-09-23T07:52:37.061Z,67.54
2022-09-23T07:53:36.064Z,65.09
2022-09-23T07:54:36.082Z,64.15
2022-09-23T07:55:36.061Z,66.15
2022-09-23T07:56:36.049Z,64.62
2022-09-23T07:57:36.030Z,59.72
2022-09-23T07:58:36.025Z,70.81
2022-09-23T07:59:36.019Z,69.94
2022-09-23T08:00:36.019Z,71.00
2022-09-23T08:01:36.166Z,62.71
2022-09-23T08:02:36.089Z,62.46
2022-09-23T08:03:35.986Z,66.57
2022-09-23T08:04:35.975Z,70.54
2022-09-23T08:05:35.967Z,64.27
2022-09-23T08:06:36.993Z,71.26
2022-09-23T08:07:35.935Z,70.78
2022-09-23T08:08:35.920Z,66.57
2022-09-23T08:09:35.941Z,66.45
2022-09-23T08:10:35.918Z,71.75
2022-09-23T08:11:35.924Z,69.85
2022-09-23T08:12:35.907Z,71.57
2022-09-23T08:13:35.895Z,62.99
2022-09-23T08:14:35.895Z,69.35
2022-09-23T08:15:35.919Z,70.07
2022-09-23T08:16:35.902Z,67.20
2022-09-23T08:17:35.889Z,71.03
2022-09-23T08:18:36.775Z,66.04
2022-09-23T08:19:35.850Z,68.70
2022-09-23T08:20:35.885Z,62.85
2022-09-23T08:21:35.863Z,65.05
2022-09-23T08:22:35.846Z,70.81
2022-09-23T08:23:35.815Z,65.77
2022-09-23T08:24:35.848Z,66.39
2022-09-23T08:25:35.814Z,59.76
2022-09-23T08:26:35.795Z,70.99
2022-09-23T08:27:35.778Z,67.84
2022-09-23T08:28:35.796Z,65.20
2022-09-23T08:29:35.786Z,69.24
2022-09-23T08:30:35.757Z,70.77
2022-09-23T08:31:35.756Z,66.05
2022-09-23T08:32:35.855Z,66.39
2022-09-23T08:33:35.776Z,63.29
2022-09-23T08:34:35.801Z,69.83
2022-09-23T08:35:35.765Z,68.94
2022-09-23T08:36:35.766Z,69.58
2022-09-23T08:37:35.734Z,65.43
2022-09-23T08:38:35.704Z,68.53
2022-09-23T08:39:35.746Z,67.21
2022-09-23T08:40:35.721Z,64.98
2022-09-23T08:41:36.721Z,71.98
2022-09-23T08:42:35.696Z,67.26
2022-09-23T08:43:35.697Z,55.96
2022-09-23T08:44:35.694Z,69.14
2022-09-23T08:45:35.662Z,64.66
2022-09-23T08:46:35.778Z,64.03
2022-09-23T08:47:35.678Z,70.21
2022-09-23T08:48:35.640Z,69.90
2022-09-23T08:49:35.628Z,71.10
2022-09-23T08:50:35.656Z,67.73
2022-09-23T08:51:35.659Z,66.53
2022-09-23T08:52:35.650Z,71.19
2022-09-23T08:53:35.641Z,70.63
2022-09-23T08:54:35.618Z,64.76
2022-09-23T08:55:35.626Z,67.54
2022-09-23T08:56:35.586Z,64.49
2022-09-23T08:57:35.624Z,65.45
2022-09-23T08:58:35.580Z,64.12
2022-09-23T08:59:35.585Z,66.70
2022-09-23T09:00:35.595Z,67.76
2022-09-23T09:01:35.592Z,63.23
2022-09-23T09:02:35.659Z,65.05
2022-09-23T09:03:36.597Z,59.63
2022-09-23T09:04:35.525Z,60.84
2022-09-23T09:05:35.548Z,67.30
2022-09-23T09:06:45.667Z,64.03
2022-09-23T09:07:38.284Z,70.31
2022-09-23T09:08:36.501Z,67.07
2022-09-23T09:09:35.534Z,68.04
2022-09-23T09:10:35.518Z,67.73
2022-09-23T09:11:35.478Z,69.04
2022-09-23T09:12:35.461Z,67.63
2022-09-23T09:13:35.474Z,68.55
2022-09-23T09:14:35.485Z,64.05
2022-09-23T09:15:35.517Z,69.25
2022-09-23T09:16:58.282Z,68.15
2022-09-23T09:17:37.478Z,67.59
2022-09-23T09:18:35.479Z,65.89
2022-09-23T09:19:35.456Z,69.22
2022-09-23T09:20:35.457Z,64.81
2022-09-23T09:21:36.318Z,67.79
2022-09-23T09:23:35.403Z,66.93
2022-09-23T09:24:35.388Z,68.53
2022-09-23T09:25:35.386Z,64.96
2022-09-23T09:26:35.412Z,68.15
2022-09-23T09:27:35.346Z,67.07
2022-09-23T09:28:35.341Z,67.10
2022-09-23T09:29:36.345Z,69.78
2022-09-23T09:30:35.338Z,64.80
2022-09-23T09:31:35.427Z,67.98
2022-09-23T09:32:35.407Z,67.89
2022-09-23T09:33:35.372Z,64.45
2022-09-23T09:34:36.282Z,65.61
2022-09-23T09:35:35.287Z,68.70
2022-09-23T09:36:35.319Z,65.29
2022-09-23T09:37:35.287Z,68.43
2022-09-23T09:38:35.266Z,62.97
2022-09-23T09:39:35.315Z,68.82
2022-09-23T09:40:35.357Z,66.62
2022-09-23T09:41:35.245Z,71.48
2022-09-23T09:42:35.322Z,67.23
2022-09-23T09:43:35.243Z,64.75
2022-09-23T09:44:37.072Z,64.71
2022-09-23T09:45:35.323Z,65.99
2022-09-23T09:46:35.290Z,69.92
2022-09-23T09:47:35.223Z,67.22
2022-09-23T09:48:35.220Z,67.39
2022-09-23T09:49:40.181Z,66.80
2022-09-23T09:50:37.257Z,63.87
2022-09-23T09:51:35.196Z,66.85
2022-09-23T09:52:38.133Z,69.02
2022-09-23T09:53:35.146Z,68.29
2022-09-23T09:54:35.127Z,66.80
2022-09-23T09:55:35.097Z,69.29
2022-09-23T09:56:35.140Z,68.46
2022-09-23T09:57:36.134Z,64.87
2022-09-23T09:58:36.099Z,67.74
2022-09-23T09:59:35.097Z,66.20
2022-09-23T10:00:35.049Z,69.16
2022-09-23T10:01:35.299Z,67.92
2022-09-23T10:02:35.034Z,68.65
2022-09-23T10:03:35.077Z,68.12
2022-09-23T10:04:35.221Z,63.02
2022-09-23T10:05:35.025Z,70.72
2022-09-23T10:06:35.062Z,71.63
2022-09-23T10:07:35.014Z,67.46
2022-09-23T10:08:35.917Z,63.80
2022-09-23T10:09:35.000Z,68.60
2022-09-23T10:10:35.088Z,64.76
2022-09-23T10:11:34.967Z,69.83
2022-09-23T10:12:34.955Z,66.20
2022-09-23T10:13:34.972Z,69.42
2022-09-23T10:14:34.967Z,65.71
2022-09-23T10:15:34.964Z,66.67
2022-09-23T10:16:35.031Z,68.82
2022-09-23T10:17:34.919Z,68.95
2022-09-23T10:18:34.943Z,70.59
2022-09-23T10:19:34.886Z,69.15
2022-09-23T10:20:34.925Z,67.34
2022-09-23T10:21:35.050Z,65.68
2022-09-23T10:22:34.893Z,66.58
2022-09-23T10:23:34.902Z,65.41
2022-09-23T10:24:34.885Z,67.94
2022-09-23T10:25:34.881Z,68.90
2022-09-23T10:26:34.880Z,68.62
2022-09-23T10:27:34.888Z,66.09
2022-09-23T10:28:34.846Z,67.29
2022-09-23T10:29:34.842Z,69.08
2022-09-23T10:30:34.903Z,66.73
2022-09-23T10:31:34.826Z,67.09
2022-09-23T10:32:34.871Z,68.48
2022-09-23T10:33:34.828Z,61.12
2022-09-23T10:34:34.805Z,71.05
2022-09-23T10:35:34.836Z,66.16
2022-09-23T10:36:34.814Z,63.71
2022-09-23T10:37:34.825Z,71.91
2022-09-23T10:38:34.787Z,69.68
2022-09-23T10:39:34.792Z,60.23
2022-09-23T10:40:34.807Z,67.45
2022-09-23T10:41:34.750Z,68.46
2022-09-23T10:42:34.767Z,68.96
2022-09-23T10:43:34.779Z,68.19
2022-09-23T10:44:34.736Z,70.03
2022-09-23T10:45:37.539Z,66.06
2022-09-23T10:46:35.759Z,68.65
2022-09-23T10:47:34.725Z,68.69
2022-09-23T10:48:34.705Z,67.90
2022-09-23T10:49:34.701Z,70.23
2022-09-23T10:50:34.702Z,66.71
2022-09-23T10:51:35.673Z,68.36
2022-09-23T10:52:34.667Z,66.68
2022-09-23T10:53:34.817Z,63.24
2022-09-23T10:54:34.691Z,68.11
2022-09-23T10:55:34.652Z,69.33
2022-09-23T10:56:34.628Z,68.05
2022-09-23T10:57:34.635Z,66.84
2022-09-23T10:58:34.643Z,68.75
2022-09-23T10:59:34.688Z,67.37
2022-09-23T11:00:34.620Z,69.20
2022-09-23T11:01:34.698Z,66.76
2022-09-23T11:02:34.620Z,66.76
2022-09-23T11:03:34.614Z,68.61
2022-09-23T11:04:34.742Z,69.50
2022-09-23T11:05:34.586Z,65.96
2022-09-23T11:06:36.096Z,64.07
2022-09-23T11:07:37.116Z,67.25
2022-09-23T11:08:35.559Z,69.10
2022-09-23T11:09:34.583Z,68.25
2022-09-23T11:10:48.392Z,68.48
2022-09-23T11:11:36.546Z,68.41
2022-09-23T11:12:34.534Z,66.55
2022-09-23T11:13:34.539Z,67.03
2022-09-23T11:14:34.517Z,68.46
2022-09-23T11:15:34.578Z,67.99
2022-09-23T11:16:34.651Z,69.04
2022-09-23T11:17:34.505Z,69.77
2022-09-23T11:18:34.490Z,67.70
2022-09-23T11:19:34.504Z,67.08
2022-09-23T11:20:34.539Z,68.62
2022-09-23T11:21:35.456Z,67.48
2022-09-23T11:22:35.111Z,63.64
2022-09-23T11:23:34.456Z,70.92
2022-09-23T11:24:34.447Z,68.50
2022-09-23T11:25:34.453Z,66.50
2022-09-23T11:26:34.462Z,67.94
2022-09-23T11:27:34.470Z,68.04
2022-09-23T11:28:35.146Z,67.86
2022-09-23T11:29:34.390Z,67.86
2022-09-23T11:30:34.500Z,68.18
2022-09-23T11:31:35.307Z,68.34
2022-09-23T11:32:34.424Z,69.65
2022-09-23T11:33:34.419Z,67.90
2022-09-23T11:34:34.482Z,69.54
2022-09-23T11:35:34.380Z,68.85
2022-09-23T11:36:35.321Z,68.66
2022-09-23T11:37:34.355Z,68.61
2022-09-23T11:38:34.393Z,65.49
2022-09-23T11:39:34.311Z,69.14
2022-09-23T11:40:34.573Z,66.54
2022-09-23T11:41:34.312Z,68.31
2022-09-23T11:42:34.403Z,69.22
2022-09-23T11:43:34.314Z,71.25
2022-09-23T11:44:34.383Z,68.29
2022-09-23T11:45:34.472Z,70.65
2022-09-23T11:46:34.318Z,68.06
2022-09-23T11:47:38.976Z,68.99
2022-09-23T11:48:36.278Z,68.00
2022-09-23T11:49:34.298Z,70.86
2022-09-23T11:50:34.278Z,67.21
2022-09-23T11:51:34.233Z,68.37
2022-09-23T11:52:34.296Z,67.20
2022-09-23T11:53:34.224Z,67.90
2022-09-23T11:54:34.235Z,69.12
2022-09-23T11:55:34.234Z,61.12
2022-09-23T11:56:36.144Z,67.88
2022-09-23T11:57:44.744Z,63.58
2022-09-23T11:58:36.369Z,68.99
2022-09-23T11:59:40.265Z,67.73
2022-09-23T12:00:36.190Z,68.02
2022-09-23T12:01:37.654Z,71.49
2022-09-23T12:02:35.273Z,68.66
2022-09-23T12:03:42.869Z,67.99
2022-09-23T12:04:39.060Z,67.36
2022-09-23T12:05:35.440Z,67.23
2022-09-23T12:06:34.156Z,72.39
2022-09-23T12:07:34.196Z,71.90
2022-09-23T12:08:34.159Z,67.65
2022-09-23T12:09:56.602Z,70.02
2022-09-23T12:10:36.110Z,68.10
2022-09-23T12:11:34.071Z,69.25
2022-09-23T12:12:34.131Z,71.26
2022-09-23T12:13:34.063Z,70.45
2022-09-23T12:14:34.061Z,69.91
2022-09-23T12:15:34.049Z,68.24
2022-09-23T12:16:34.157Z,70.85
2022-09-23T12:17:34.075Z,65.29
2022-09-23T12:18:35.689Z,68.93
2022-09-23T12:19:34.026Z,66.30
2022-09-23T12:20:35.637Z,66.90
2022-09-23T12:21:51.251Z,66.31
2022-09-23T12:22:36.031Z,63.09
2022-09-23T12:23:34.014Z,66.86
2022-09-23T12:24:34.005Z,66.36
2022-09-23T12:25:34.039Z,69.17
2022-09-23T12:26:34.004Z,68.87
2022-09-23T12:27:33.956Z,68.11
2022-09-23T12:28:33.985Z,69.13
2022-09-23T12:29:33.983Z,69.24
2022-09-23T12:30:34.091Z,71.96
2022-09-23T12:31:36.357Z,67.79
2022-09-23T12:32:34.943Z,70.88
2022-09-23T12:33:33.980Z,67.60
2022-09-23T12:34:33.967Z,67.64
2022-09-23T12:35:33.945Z,68.27
2022-09-23T12:36:33.960Z,67.51
2022-09-23T12:37:33.896Z,67.59
2022-09-23T12:38:33.902Z,68.92
2022-09-23T12:39:33.936Z,68.07
2022-09-23T12:40:33.945Z,71.20
2022-09-23T12:41:33.902Z,69.14
2022-09-23T12:42:33.857Z,68.66
2022-09-23T12:43:33.861Z,69.24
2022-09-23T12:44:33.897Z,65.03
2022-09-23T12:45:34.051Z,68.63
2022-09-23T12:46:33.857Z,70.30
2022-09-23T12:47:33.831Z,66.78
2022-09-23T12:48:33.849Z,70.29
2022-09-23T12:49:33.824Z,67.21
2022-09-23T12:50:34.403Z,67.28
2022-09-23T12:51:33.822Z,63.47
2022-09-23T12:52:33.829Z,70.56
2022-09-23T12:53:33.811Z,69.43
2022-09-23T12:54:33.799Z,62.04
2022-09-23T12:55:33.787Z,69.86
2022-09-23T12:56:33.805Z,67.55
2022-09-23T12:57:33.772Z,68.41
2022-09-23T12:58:33.762Z,68.20
2022-09-23T12:59:33.745Z,67.58
2022-09-23T13:00:34.463Z,70.75
2022-09-23T13:01:34.774Z,70.03
2022-09-23T13:02:33.750Z,69.23
2022-09-23T13:03:33.695Z,67.97
2022-09-23T13:04:33.679Z,65.32
2022-09-23T13:05:33.703Z,68.49
2022-09-23T13:06:33.756Z,66.15
2022-09-23T13:07:33.722Z,69.53
2022-09-23T13:08:33.689Z,69.06
2022-09-23T13:09:33.676Z,67.28
2022-09-23T13:10:33.657Z,70.09
2022-09-23T13:11:33.664Z,66.78
2022-09-23T13:12:33.732Z,68.90
2022-09-23T13:13:33.654Z,67.85
2022-09-23T13:14:33.631Z,66.34
2022-09-23T13:15:33.635Z,63.04
2022-09-23T13:16:33.651Z,62.84
2022-09-23T13:17:33.640Z,69.49
2022-09-23T13:18:33.624Z,65.64
2022-09-23T13:19:38.560Z,70.11
2022-09-23T13:20:35.564Z,69.74
2022-09-23T13:21:33.610Z,66.18
2022-09-23T13:22:33.595Z,70.11
2022-09-23T13:23:33.559Z,68.91
2022-09-23T13:24:33.544Z,67.00
2022-09-23T13:25:33.558Z,62.13
2022-09-23T13:26:33.568Z,65.51
2022-09-23T13:27:33.537Z,64.86